sensor_id;sensor_type;location;lat;lon;timestamp;P1;durP1;ratioP1;P2;durP2;ratioP2
63112;SDS011;49206;48.020;21.378;2023-10-19T00:00:35;27.67;;;14.25;;
63112;SDS011;49206;48.020;21.378;2023-10-19T00:01:41;24.55;;;15.15;;
63112;SDS011;49206;48.020;21.378;2023-10-19T00:02:43;27.13;;;16.58;;
63112;SDS011;49206;48.020;21.378;2023-10-19T00:03:46;24.67;;;14.27;;
63112;SDS011;49206;48.020;21.378;2023-10-19T00:04:52;26.45;;;15.20;;
63112;SDS011;49206;48.020;21.378;2023-10-19T00:05:55;23.88;;;14.77;;
63112;SDS011;49206;48.020;21.378;2023-10-19T00:06:58;25.52;;;14.32;;
63112;SDS011;49206;48.020;21.378;2023-10-19T00:08:01;24.73;;;15.75;;
63112;SDS011;49206;48.020;21.378;2023-10-19T00:09:09;26.70;;;14.95;;
63112;SDS011;49206;48.020;21.378;2023-10-19T00:10:13;25.48;;;14.70;;
63112;SDS011;49206;48.020;21.378;2023-10-19T00:11:18;24.48;;;13.90;;
63112;SDS011;49206;48.020;21.378;2023-10-19T00:12:24;19.98;;;13.32;;
63112;SDS011;49206;48.020;21.378;2023-10-19T00:13:27;25.00;;;13.55;;
63112;SDS011;49206;48.020;21.378;2023-10-19T00:15:35;24.85;;;13.75;;
63112;SDS011;49206;48.020;21.378;2023-10-19T00:16:42;24.77;;;13.13;;
63112;SDS011;49206;48.020;21.378;2023-10-19T00:17:52;21.63;;;12.65;;
63112;SDS011;49206;48.020;21.378;2023-10-19T00:18:56;21.80;;;13.52;;
63112;SDS011;49206;48.020;21.378;2023-10-19T00:20:03;27.52;;;13.23;;
63112;SDS011;49206;48.020;21.378;2023-10-19T00:21:24;23.10;;;13.20;;
63112;SDS011;49206;48.020;21.378;2023-10-19T00:22:27;23.65;;;14.27;;
63112;SDS011;49206;48.020;21.378;2023-10-19T00:23:33;21.25;;;12.63;;
63112;SDS011;49206;48.020;21.378;2023-10-19T00:24:37;22.27;;;12.85;;
63112;SDS011;49206;48.020;21.378;2023-10-19T00:25:41;21.60;;;13.35;;
63112;SDS011;49206;48.020;21.378;2023-10-19T00:26:44;23.17;;;13.32;;
63112;SDS011;49206;48.020;21.378;2023-10-19T00:27:46;22.00;;;13.48;;
63112;SDS011;49206;48.020;21.378;2023-10-19T00:28:53;23.02;;;14.02;;
63112;SDS011;49206;48.020;21.378;2023-10-19T00:29:58;29.05;;;13.73;;
63112;SDS011;49206;48.020;21.378;2023-10-19T00:31:08;23.95;;;13.20;;
63112;SDS011;49206;48.020;21.378;2023-10-19T00:32:11;20.20;;;12.70;;
63112;SDS011;49206;48.020;21.378;2023-10-19T00:33:20;23.85;;;13.45;;
63112;SDS011;49206;48.020;21.378;2023-10-19T00:34:24;25.85;;;12.65;;
63112;SDS011;49206;48.020;21.378;2023-10-19T00:35:27;21.50;;;13.98;;
63112;SDS011;49206;48.020;21.378;2023-10-19T00:36:36;21.67;;;12.55;;
63112;SDS011;49206;48.020;21.378;2023-10-19T00:37:41;21.17;;;11.88;;
63112;SDS011;49206;48.020;21.378;2023-10-19T00:38:44;20.42;;;12.13;;
63112;SDS011;49206;48.020;21.378;2023-10-19T00:40:02;22.30;;;13.02;;
63112;SDS011;49206;48.020;21.378;2023-10-19T00:41:19;18.77;;;11.93;;
63112;SDS011;49206;48.020;21.378;2023-10-19T00:42:32;21.45;;;12.82;;
63112;SDS011;49206;48.020;21.378;2023-10-19T00:43:41;22.95;;;12.48;;
63112;SDS011;49206;48.020;21.378;2023-10-19T00:44:47;21.20;;;12.38;;
63112;SDS011;49206;48.020;21.378;2023-10-19T00:45:53;20.65;;;12.80;;
63112;SDS011;49206;48.020;21.378;2023-10-19T00:46:59;17.77;;;11.77;;
63112;SDS011;49206;48.020;21.378;2023-10-19T00:48:22;21.92;;;12.85;;
63112;SDS011;49206;48.020;21.378;2023-10-19T00:49:28;22.42;;;12.32;;
63112;SDS011;49206;48.020;21.378;2023-10-19T00:50:31;22.88;;;11.52;;
63112;SDS011;49206;48.020;21.378;2023-10-19T00:51:37;21.02;;;12.27;;
63112;SDS011;49206;48.020;21.378;2023-10-19T00:52:58;21.85;;;12.65;;
63112;SDS011;49206;48.020;21.378;2023-10-19T00:54:04;21.40;;;12.55;;
63112;SDS011;49206;48.020;21.378;2023-10-19T00:55:18;21.10;;;11.60;;
63112;SDS011;49206;48.020;21.378;2023-10-19T00:56:28;19.48;;;11.05;;
63112;SDS011;49206;48.020;21.378;2023-10-19T00:57:34;18.13;;;10.75;;
63112;SDS011;49206;48.020;21.378;2023-10-19T00:58:38;18.02;;;11.90;;
63112;SDS011;49206;48.020;21.378;2023-10-19T00:59:43;18.33;;;11.43;;
63112;SDS011;49206;48.020;21.378;2023-10-19T01:00:50;17.55;;;11.52;;
63112;SDS011;49206;48.020;21.378;2023-10-19T01:01:57;21.33;;;12.57;;
63112;SDS011;49206;48.020;21.378;2023-10-19T01:03:19;19.23;;;11.27;;
63112;SDS011;49206;48.020;21.378;2023-10-19T01:04:22;16.27;;;11.30;;
63112;SDS011;49206;48.020;21.378;2023-10-19T01:05:28;20.90;;;12.40;;
63112;SDS011;49206;48.020;21.378;2023-10-19T01:06:42;19.77;;;11.70;;
63112;SDS011;49206;48.020;21.378;2023-10-19T01:07:46;21.83;;;12.27;;
63112;SDS011;49206;48.020;21.378;2023-10-19T01:08:53;19.48;;;11.80;;
63112;SDS011;49206;48.020;21.378;2023-10-19T01:09:58;20.70;;;12.27;;
63112;SDS011;49206;48.020;21.378;2023-10-19T01:11:23;20.95;;;10.68;;
63112;SDS011;49206;48.020;21.378;2023-10-19T01:12:30;20.55;;;11.70;;
63112;SDS011;49206;48.020;21.378;2023-10-19T01:13:33;16.60;;;10.50;;
63112;SDS011;49206;48.020;21.378;2023-10-19T01:14:37;19.90;;;11.27;;
63112;SDS011;49206;48.020;21.378;2023-10-19T01:15:40;17.60;;;9.82;;
63112;SDS011;49206;48.020;21.378;2023-10-19T01:16:43;17.80;;;11.02;;
63112;SDS011;49206;48.020;21.378;2023-10-19T01:17:48;19.52;;;11.52;;
63112;SDS011;49206;48.020;21.378;2023-10-19T01:18:59;21.45;;;13.02;;
63112;SDS011;49206;48.020;21.378;2023-10-19T01:20:10;21.17;;;11.82;;
63112;SDS011;49206;48.020;21.378;2023-10-19T01:21:23;20.02;;;12.13;;
63112;SDS011;49206;48.020;21.378;2023-10-19T01:22:43;19.90;;;12.10;;
63112;SDS011;49206;48.020;21.378;2023-10-19T01:24:11;23.27;;;12.68;;
63112;SDS011;49206;48.020;21.378;2023-10-19T01:25:19;21.98;;;11.98;;
63112;SDS011;49206;48.020;21.378;2023-10-19T01:26:35;22.85;;;12.43;;
63112;SDS011;49206;48.020;21.378;2023-10-19T01:28:42;23.33;;;11.73;;
63112;SDS011;49206;48.020;21.378;2023-10-19T01:29:54;21.63;;;12.45;;
63112;SDS011;49206;48.020;21.378;2023-10-19T01:31:02;21.45;;;12.95;;
63112;SDS011;49206;48.020;21.378;2023-10-19T01:32:08;21.52;;;11.90;;
63112;SDS011;49206;48.020;21.378;2023-10-19T01:33:11;19.95;;;12.00;;
63112;SDS011;49206;48.020;21.378;2023-10-19T01:34:26;16.60;;;11.05;;
63112;SDS011;49206;48.020;21.378;2023-10-19T01:35:29;18.48;;;11.30;;
63112;SDS011;49206;48.020;21.378;2023-10-19T01:36:51;20.60;;;12.43;;
63112;SDS011;49206;48.020;21.378;2023-10-19T01:37:58;21.13;;;12.45;;
63112;SDS011;49206;48.020;21.378;2023-10-19T01:39:01;20.92;;;12.02;;
63112;SDS011;49206;48.020;21.378;2023-10-19T01:40:12;22.98;;;12.35;;
63112;SDS011;49206;48.020;21.378;2023-10-19T01:42:28;21.75;;;10.25;;
63112;SDS011;49206;48.020;21.378;2023-10-19T01:43:33;20.10;;;11.02;;
63112;SDS011;49206;48.020;21.378;2023-10-19T01:44:36;21.38;;;12.25;;
63112;SDS011;49206;48.020;21.378;2023-10-19T01:45:39;19.67;;;11.95;;
63112;SDS011;49206;48.020;21.378;2023-10-19T01:46:41;21.85;;;13.00;;
63112;SDS011;49206;48.020;21.378;2023-10-19T01:47:48;23.73;;;12.98;;
63112;SDS011;49206;48.020;21.378;2023-10-19T01:48:53;20.95;;;13.27;;
63112;SDS011;49206;48.020;21.378;2023-10-19T01:49:57;18.77;;;11.48;;
63112;SDS011;49206;48.020;21.378;2023-10-19T01:51:02;18.90;;;13.05;;
63112;SDS011;49206;48.020;21.378;2023-10-19T01:52:07;22.30;;;11.80;;
63112;SDS011;49206;48.020;21.378;2023-10-19T01:53:12;21.95;;;12.90;;
63112;SDS011;49206;48.020;21.378;2023-10-19T01:54:18;22.02;;;11.82;;
63112;SDS011;49206;48.020;21.378;2023-10-19T01:55:25;17.08;;;10.98;;
63112;SDS011;49206;48.020;21.378;2023-10-19T01:56:30;19.83;;;12.57;;
63112;SDS011;49206;48.020;21.378;2023-10-19T01:57:33;21.23;;;12.30;;
63112;SDS011;49206;48.020;21.378;2023-10-19T01:58:37;22.20;;;13.13;;
63112;SDS011;49206;48.020;21.378;2023-10-19T01:59:40;18.83;;;12.43;;
63112;SDS011;49206;48.020;21.378;2023-10-19T02:00:46;19.98;;;11.93;;
63112;SDS011;49206;48.020;21.378;2023-10-19T02:01:49;17.83;;;12.57;;
63112;SDS011;49206;48.020;21.378;2023-10-19T02:02:59;21.10;;;13.00;;
63112;SDS011;49206;48.020;21.378;2023-10-19T02:04:03;24.67;;;12.90;;
63112;SDS011;49206;48.020;21.378;2023-10-19T02:05:08;19.00;;;11.43;;
63112;SDS011;49206;48.020;21.378;2023-10-19T02:06:16;22.55;;;13.10;;
63112;SDS011;49206;48.020;21.378;2023-10-19T02:07:20;21.67;;;13.43;;
63112;SDS011;49206;48.020;21.378;2023-10-19T02:08:22;18.63;;;12.25;;
63112;SDS011;49206;48.020;21.378;2023-10-19T02:09:27;19.45;;;12.07;;
63112;SDS011;49206;48.020;21.378;2023-10-19T02:10:32;22.45;;;13.57;;
63112;SDS011;49206;48.020;21.378;2023-10-19T02:11:39;19.88;;;12.18;;
63112;SDS011;49206;48.020;21.378;2023-10-19T02:12:45;23.80;;;13.25;;
63112;SDS011;49206;48.020;21.378;2023-10-19T02:13:49;21.45;;;11.93;;
63112;SDS011;49206;48.020;21.378;2023-10-19T02:14:57;24.25;;;12.98;;
63112;SDS011;49206;48.020;21.378;2023-10-19T02:16:00;23.35;;;13.10;;
63112;SDS011;49206;48.020;21.378;2023-10-19T02:17:02;22.92;;;12.60;;
63112;SDS011;49206;48.020;21.378;2023-10-19T02:18:06;21.00;;;12.23;;
63112;SDS011;49206;48.020;21.378;2023-10-19T02:19:11;26.30;;;14.18;;
63112;SDS011;49206;48.020;21.378;2023-10-19T02:20:15;23.52;;;14.05;;
63112;SDS011;49206;48.020;21.378;2023-10-19T02:21:40;18.40;;;10.68;;
63112;SDS011;49206;48.020;21.378;2023-10-19T02:22:43;22.23;;;13.07;;
63112;SDS011;49206;48.020;21.378;2023-10-19T02:23:45;19.45;;;12.70;;
63112;SDS011;49206;48.020;21.378;2023-10-19T02:24:48;24.67;;;13.93;;
63112;SDS011;49206;48.020;21.378;2023-10-19T02:25:51;23.45;;;13.93;;
63112;SDS011;49206;48.020;21.378;2023-10-19T02:27:58;20.40;;;12.63;;
63112;SDS011;49206;48.020;21.378;2023-10-19T02:29:01;19.75;;;12.35;;
63112;SDS011;49206;48.020;21.378;2023-10-19T02:30:09;22.50;;;12.63;;
63112;SDS011;49206;48.020;21.378;2023-10-19T02:31:13;24.75;;;13.80;;
63112;SDS011;49206;48.020;21.378;2023-10-19T02:32:28;23.73;;;12.73;;
63112;SDS011;49206;48.020;21.378;2023-10-19T02:33:31;24.55;;;14.10;;
63112;SDS011;49206;48.020;21.378;2023-10-19T02:34:33;24.75;;;14.85;;
63112;SDS011;49206;48.020;21.378;2023-10-19T02:35:37;22.25;;;12.98;;
63112;SDS011;49206;48.020;21.378;2023-10-19T02:36:39;21.73;;;13.75;;
63112;SDS011;49206;48.020;21.378;2023-10-19T02:37:42;21.40;;;12.95;;
63112;SDS011;49206;48.020;21.378;2023-10-19T02:38:46;23.33;;;13.10;;
63112;SDS011;49206;48.020;21.378;2023-10-19T02:39:52;25.50;;;13.95;;
63112;SDS011;49206;48.020;21.378;2023-10-19T02:40:55;23.88;;;13.55;;
63112;SDS011;49206;48.020;21.378;2023-10-19T02:41:58;26.90;;;14.13;;
63112;SDS011;49206;48.020;21.378;2023-10-19T02:43:03;25.58;;;13.55;;
63112;SDS011;49206;48.020;21.378;2023-10-19T02:44:10;23.25;;;14.63;;
63112;SDS011;49206;48.020;21.378;2023-10-19T02:45:18;24.60;;;14.07;;
63112;SDS011;49206;48.020;21.378;2023-10-19T02:46:21;19.17;;;13.82;;
63112;SDS011;49206;48.020;21.378;2023-10-19T02:48:31;23.48;;;13.00;;
63112;SDS011;49206;48.020;21.378;2023-10-19T02:49:33;24.73;;;13.75;;
63112;SDS011;49206;48.020;21.378;2023-10-19T02:50:41;24.25;;;13.80;;
63112;SDS011;49206;48.020;21.378;2023-10-19T02:51:44;25.10;;;14.85;;
63112;SDS011;49206;48.020;21.378;2023-10-19T02:52:49;22.55;;;14.88;;
63112;SDS011;49206;48.020;21.378;2023-10-19T02:53:52;22.80;;;15.02;;
63112;SDS011;49206;48.020;21.378;2023-10-19T02:54:55;29.17;;;16.00;;
63112;SDS011;49206;48.020;21.378;2023-10-19T02:55:59;25.52;;;14.70;;
63112;SDS011;49206;48.020;21.378;2023-10-19T02:57:08;26.15;;;15.25;;
63112;SDS011;49206;48.020;21.378;2023-10-19T02:58:14;22.58;;;13.50;;
63112;SDS011;49206;48.020;21.378;2023-10-19T02:59:23;26.95;;;15.00;;
63112;SDS011;49206;48.020;21.378;2023-10-19T03:00:26;24.13;;;14.65;;
63112;SDS011;49206;48.020;21.378;2023-10-19T03:01:35;26.42;;;14.70;;
63112;SDS011;49206;48.020;21.378;2023-10-19T03:02:37;28.67;;;16.00;;
63112;SDS011;49206;48.020;21.378;2023-10-19T03:03:41;23.60;;;15.50;;
63112;SDS011;49206;48.020;21.378;2023-10-19T03:04:45;27.20;;;15.52;;
63112;SDS011;49206;48.020;21.378;2023-10-19T03:05:49;22.52;;;14.70;;
63112;SDS011;49206;48.020;21.378;2023-10-19T03:06:53;27.58;;;15.48;;
63112;SDS011;49206;48.020;21.378;2023-10-19T03:07:58;26.98;;;14.65;;
63112;SDS011;49206;48.020;21.378;2023-10-19T03:09:03;21.80;;;14.45;;
63112;SDS011;49206;48.020;21.378;2023-10-19T03:10:39;25.25;;;14.25;;
63112;SDS011;49206;48.020;21.378;2023-10-19T03:11:49;25.02;;;14.20;;
63112;SDS011;49206;48.020;21.378;2023-10-19T03:13:00;28.98;;;16.20;;
63112;SDS011;49206;48.020;21.378;2023-10-19T03:14:04;26.13;;;14.63;;
63112;SDS011;49206;48.020;21.378;2023-10-19T03:15:11;25.58;;;13.80;;
63112;SDS011;49206;48.020;21.378;2023-10-19T03:16:32;28.38;;;14.10;;
63112;SDS011;49206;48.020;21.378;2023-10-19T03:17:37;25.50;;;15.15;;
63112;SDS011;49206;48.020;21.378;2023-10-19T03:18:42;24.02;;;14.73;;
63112;SDS011;49206;48.020;21.378;2023-10-19T03:19:45;24.38;;;14.32;;
63112;SDS011;49206;48.020;21.378;2023-10-19T03:20:48;29.27;;;16.52;;
63112;SDS011;49206;48.020;21.378;2023-10-19T03:21:53;27.38;;;15.15;;
63112;SDS011;49206;48.020;21.378;2023-10-19T03:22:58;20.90;;;15.18;;
63112;SDS011;49206;48.020;21.378;2023-10-19T03:24:03;23.13;;;14.52;;
63112;SDS011;49206;48.020;21.378;2023-10-19T03:25:14;24.95;;;15.48;;
63112;SDS011;49206;48.020;21.378;2023-10-19T03:26:36;25.45;;;15.32;;
63112;SDS011;49206;48.020;21.378;2023-10-19T03:27:40;25.45;;;14.43;;
63112;SDS011;49206;48.020;21.378;2023-10-19T03:28:46;24.50;;;13.57;;
63112;SDS011;49206;48.020;21.378;2023-10-19T03:29:51;26.20;;;14.52;;
63112;SDS011;49206;48.020;21.378;2023-10-19T03:30:58;24.85;;;15.70;;
63112;SDS011;49206;48.020;21.378;2023-10-19T03:32:03;23.58;;;14.73;;
63112;SDS011;49206;48.020;21.378;2023-10-19T03:33:06;24.77;;;15.10;;
63112;SDS011;49206;48.020;21.378;2023-10-19T03:34:14;30.10;;;15.57;;
63112;SDS011;49206;48.020;21.378;2023-10-19T03:35:20;24.75;;;14.82;;
63112;SDS011;49206;48.020;21.378;2023-10-19T03:36:23;25.90;;;14.27;;
63112;SDS011;49206;48.020;21.378;2023-10-19T03:37:26;23.60;;;14.57;;
63112;SDS011;49206;48.020;21.378;2023-10-19T03:38:34;26.13;;;14.88;;
63112;SDS011;49206;48.020;21.378;2023-10-19T03:39:39;26.13;;;15.13;;
63112;SDS011;49206;48.020;21.378;2023-10-19T03:40:42;23.92;;;14.18;;
63112;SDS011;49206;48.020;21.378;2023-10-19T03:41:54;24.23;;;13.15;;
63112;SDS011;49206;48.020;21.378;2023-10-19T03:42:56;24.77;;;13.38;;
63112;SDS011;49206;48.020;21.378;2023-10-19T03:43:59;24.95;;;15.70;;
63112;SDS011;49206;48.020;21.378;2023-10-19T03:45:03;25.08;;;13.80;;
63112;SDS011;49206;48.020;21.378;2023-10-19T03:46:14;24.88;;;15.00;;
63112;SDS011;49206;48.020;21.378;2023-10-19T03:47:40;26.38;;;13.98;;
63112;SDS011;49206;48.020;21.378;2023-10-19T03:48:46;24.83;;;14.60;;
63112;SDS011;49206;48.020;21.378;2023-10-19T03:49:49;23.08;;;13.70;;
63112;SDS011;49206;48.020;21.378;2023-10-19T03:50:55;23.63;;;13.75;;
63112;SDS011;49206;48.020;21.378;2023-10-19T03:51:58;27.30;;;15.35;;
63112;SDS011;49206;48.020;21.378;2023-10-19T03:53:02;23.80;;;13.38;;
63112;SDS011;49206;48.020;21.378;2023-10-19T03:54:06;25.75;;;15.65;;
63112;SDS011;49206;48.020;21.378;2023-10-19T03:55:28;24.27;;;14.68;;
63112;SDS011;49206;48.020;21.378;2023-10-19T03:56:31;25.52;;;15.20;;
63112;SDS011;49206;48.020;21.378;2023-10-19T03:57:35;26.45;;;15.02;;
63112;SDS011;49206;48.020;21.378;2023-10-19T03:58:43;25.30;;;16.15;;
63112;SDS011;49206;48.020;21.378;2023-10-19T03:59:50;23.25;;;15.25;;
63112;SDS011;49206;48.020;21.378;2023-10-19T04:00:59;24.52;;;15.05;;
63112;SDS011;49206;48.020;21.378;2023-10-19T04:02:07;22.95;;;14.23;;
63112;SDS011;49206;48.020;21.378;2023-10-19T04:03:17;27.75;;;15.18;;
63112;SDS011;49206;48.020;21.378;2023-10-19T04:04:19;23.30;;;14.52;;
63112;SDS011;49206;48.020;21.378;2023-10-19T04:05:23;26.85;;;15.85;;
63112;SDS011;49206;48.020;21.378;2023-10-19T04:06:27;29.38;;;16.90;;
63112;SDS011;49206;48.020;21.378;2023-10-19T04:07:30;26.90;;;16.40;;
63112;SDS011;49206;48.020;21.378;2023-10-19T04:08:35;22.95;;;13.73;;
63112;SDS011;49206;48.020;21.378;2023-10-19T04:09:39;26.08;;;15.60;;
63112;SDS011;49206;48.020;21.378;2023-10-19T04:10:59;25.13;;;14.73;;
63112;SDS011;49206;48.020;21.378;2023-10-19T04:12:21;23.65;;;13.85;;
63112;SDS011;49206;48.020;21.378;2023-10-19T04:13:24;24.05;;;13.18;;
63112;SDS011;49206;48.020;21.378;2023-10-19T04:14:26;23.27;;;15.48;;
63112;SDS011;49206;48.020;21.378;2023-10-19T04:15:29;24.30;;;14.95;;
63112;SDS011;49206;48.020;21.378;2023-10-19T04:16:36;24.90;;;13.68;;
63112;SDS011;49206;48.020;21.378;2023-10-19T04:17:39;23.38;;;13.48;;
63112;SDS011;49206;48.020;21.378;2023-10-19T04:18:44;23.55;;;15.15;;
63112;SDS011;49206;48.020;21.378;2023-10-19T04:19:47;27.75;;;15.43;;
63112;SDS011;49206;48.020;21.378;2023-10-19T04:20:57;23.92;;;15.73;;
63112;SDS011;49206;48.020;21.378;2023-10-19T04:22:00;25.73;;;15.60;;
63112;SDS011;49206;48.020;21.378;2023-10-19T04:23:03;23.90;;;13.95;;
63112;SDS011;49206;48.020;21.378;2023-10-19T04:24:15;23.80;;;14.20;;
63112;SDS011;49206;48.020;21.378;2023-10-19T04:25:19;25.52;;;14.25;;
63112;SDS011;49206;48.020;21.378;2023-10-19T04:26:23;26.70;;;15.07;;
63112;SDS011;49206;48.020;21.378;2023-10-19T04:27:26;23.58;;;15.18;;
63112;SDS011;49206;48.020;21.378;2023-10-19T04:28:31;22.17;;;15.00;;
63112;SDS011;49206;48.020;21.378;2023-10-19T04:29:41;27.98;;;14.63;;
63112;SDS011;49206;48.020;21.378;2023-10-19T04:30:45;27.17;;;14.68;;
63112;SDS011;49206;48.020;21.378;2023-10-19T04:31:50;28.90;;;15.93;;
63112;SDS011;49206;48.020;21.378;2023-10-19T04:32:57;25.30;;;15.43;;
63112;SDS011;49206;48.020;21.378;2023-10-19T04:34:00;27.92;;;15.13;;
63112;SDS011;49206;48.020;21.378;2023-10-19T04:35:12;25.05;;;15.30;;
63112;SDS011;49206;48.020;21.378;2023-10-19T04:36:23;23.75;;;14.15;;
63112;SDS011;49206;48.020;21.378;2023-10-19T04:38:30;27.55;;;15.93;;
63112;SDS011;49206;48.020;21.378;2023-10-19T04:39:35;24.75;;;15.65;;
63112;SDS011;49206;48.020;21.378;2023-10-19T04:40:38;28.85;;;17.33;;
63112;SDS011;49206;48.020;21.378;2023-10-19T04:41:41;28.88;;;15.98;;
63112;SDS011;49206;48.020;21.378;2023-10-19T04:42:46;28.42;;;16.55;;
63112;SDS011;49206;48.020;21.378;2023-10-19T04:43:50;31.00;;;15.73;;
63112;SDS011;49206;48.020;21.378;2023-10-19T04:44:52;26.63;;;15.75;;
63112;SDS011;49206;48.020;21.378;2023-10-19T04:45:55;26.15;;;17.63;;
63112;SDS011;49206;48.020;21.378;2023-10-19T04:46:57;29.05;;;16.92;;
63112;SDS011;49206;48.020;21.378;2023-10-19T04:48:00;26.65;;;16.10;;
63112;SDS011;49206;48.020;21.378;2023-10-19T04:49:05;24.75;;;15.82;;
63112;SDS011;49206;48.020;21.378;2023-10-19T04:50:08;32.30;;;19.27;;
63112;SDS011;49206;48.020;21.378;2023-10-19T04:51:14;31.55;;;18.00;;
63112;SDS011;49206;48.020;21.378;2023-10-19T04:52:16;28.67;;;17.23;;
63112;SDS011;49206;48.020;21.378;2023-10-19T04:53:19;30.27;;;18.63;;
63112;SDS011;49206;48.020;21.378;2023-10-19T04:54:22;27.88;;;16.98;;
63112;SDS011;49206;48.020;21.378;2023-10-19T04:55:25;30.05;;;17.92;;
63112;SDS011;49206;48.020;21.378;2023-10-19T04:56:27;25.77;;;17.38;;
63112;SDS011;49206;48.020;21.378;2023-10-19T04:57:30;31.02;;;16.65;;
63112;SDS011;49206;48.020;21.378;2023-10-19T04:58:33;25.17;;;16.60;;
63112;SDS011;49206;48.020;21.378;2023-10-19T04:59:35;25.98;;;15.38;;
63112;SDS011;49206;48.020;21.378;2023-10-19T05:00:39;25.63;;;16.05;;
63112;SDS011;49206;48.020;21.378;2023-10-19T05:01:41;30.48;;;17.00;;
63112;SDS011;49206;48.020;21.378;2023-10-19T05:02:44;26.92;;;16.08;;
63112;SDS011;49206;48.020;21.378;2023-10-19T05:03:47;26.98;;;16.35;;
63112;SDS011;49206;48.020;21.378;2023-10-19T05:04:49;31.30;;;19.23;;
63112;SDS011;49206;48.020;21.378;2023-10-19T05:05:52;28.70;;;18.45;;
63112;SDS011;49206;48.020;21.378;2023-10-19T05:06:57;31.20;;;18.55;;
63112;SDS011;49206;48.020;21.378;2023-10-19T05:08:00;33.25;;;17.83;;
63112;SDS011;49206;48.020;21.378;2023-10-19T05:09:03;27.33;;;17.25;;
63112;SDS011;49206;48.020;21.378;2023-10-19T05:10:08;31.83;;;17.77;;
63112;SDS011;49206;48.020;21.378;2023-10-19T05:11:11;29.00;;;17.40;;
63112;SDS011;49206;48.020;21.378;2023-10-19T05:12:14;25.27;;;15.32;;
63112;SDS011;49206;48.020;21.378;2023-10-19T05:13:17;29.08;;;16.90;;
63112;SDS011;49206;48.020;21.378;2023-10-19T05:14:20;29.80;;;17.67;;
63112;SDS011;49206;48.020;21.378;2023-10-19T05:15:22;29.02;;;17.25;;
63112;SDS011;49206;48.020;21.378;2023-10-19T05:16:25;27.88;;;16.25;;
63112;SDS011;49206;48.020;21.378;2023-10-19T05:17:28;26.23;;;15.40;;
63112;SDS011;49206;48.020;21.378;2023-10-19T05:18:31;26.58;;;16.23;;
63112;SDS011;49206;48.020;21.378;2023-10-19T05:19:34;28.75;;;15.55;;
63112;SDS011;49206;48.020;21.378;2023-10-19T05:20:39;26.23;;;15.43;;
63112;SDS011;49206;48.020;21.378;2023-10-19T05:21:46;26.02;;;14.95;;
63112;SDS011;49206;48.020;21.378;2023-10-19T05:22:50;28.23;;;14.40;;
63112;SDS011;49206;48.020;21.378;2023-10-19T05:24:56;24.10;;;14.05;;
63112;SDS011;49206;48.020;21.378;2023-10-19T05:26:00;28.67;;;15.23;;
63112;SDS011;49206;48.020;21.378;2023-10-19T05:27:06;30.02;;;16.13;;
63112;SDS011;49206;48.020;21.378;2023-10-19T05:28:13;29.45;;;15.27;;
63112;SDS011;49206;48.020;21.378;2023-10-19T05:29:16;28.52;;;17.08;;
63112;SDS011;49206;48.020;21.378;2023-10-19T05:30:19;28.63;;;17.27;;
63112;SDS011;49206;48.020;21.378;2023-10-19T05:31:27;27.02;;;17.13;;
63112;SDS011;49206;48.020;21.378;2023-10-19T05:32:30;28.48;;;17.10;;
63112;SDS011;49206;48.020;21.378;2023-10-19T05:33:33;25.63;;;15.88;;
63112;SDS011;49206;48.020;21.378;2023-10-19T05:34:35;27.17;;;16.67;;
63112;SDS011;49206;48.020;21.378;2023-10-19T05:35:39;24.70;;;15.27;;
63112;SDS011;49206;48.020;21.378;2023-10-19T05:36:45;27.08;;;15.32;;
63112;SDS011;49206;48.020;21.378;2023-10-19T05:37:51;23.42;;;13.98;;
63112;SDS011;49206;48.020;21.378;2023-10-19T05:38:54;26.23;;;15.85;;
63112;SDS011;49206;48.020;21.378;2023-10-19T05:39:57;26.15;;;14.50;;
63112;SDS011;49206;48.020;21.378;2023-10-19T05:40:59;26.73;;;14.77;;
63112;SDS011;49206;48.020;21.378;2023-10-19T05:42:02;26.10;;;17.25;;
63112;SDS011;49206;48.020;21.378;2023-10-19T05:43:05;28.73;;;15.77;;
63112;SDS011;49206;48.020;21.378;2023-10-19T05:44:08;26.63;;;16.27;;
63112;SDS011;49206;48.020;21.378;2023-10-19T05:45:11;25.67;;;17.67;;
63112;SDS011;49206;48.020;21.378;2023-10-19T05:46:15;29.95;;;18.77;;
63112;SDS011;49206;48.020;21.378;2023-10-19T05:47:22;28.05;;;17.52;;
63112;SDS011;49206;48.020;21.378;2023-10-19T05:48:25;25.08;;;14.18;;
63112;SDS011;49206;48.020;21.378;2023-10-19T05:49:28;26.67;;;14.77;;
63112;SDS011;49206;48.020;21.378;2023-10-19T05:50:33;21.15;;;13.32;;
63112;SDS011;49206;48.020;21.378;2023-10-19T05:51:36;24.23;;;15.40;;
63112;SDS011;49206;48.020;21.378;2023-10-19T05:52:39;23.30;;;13.73;;
63112;SDS011;49206;48.020;21.378;2023-10-19T05:53:43;28.23;;;15.18;;
63112;SDS011;49206;48.020;21.378;2023-10-19T05:54:47;25.13;;;14.85;;
63112;SDS011;49206;48.020;21.378;2023-10-19T05:55:49;26.23;;;15.45;;
63112;SDS011;49206;48.020;21.378;2023-10-19T05:56:52;26.15;;;15.15;;
63112;SDS011;49206;48.020;21.378;2023-10-19T05:57:55;24.75;;;15.18;;
63112;SDS011;49206;48.020;21.378;2023-10-19T05:58:58;21.98;;;13.48;;
63112;SDS011;49206;48.020;21.378;2023-10-19T06:00:01;27.33;;;15.00;;
63112;SDS011;49206;48.020;21.378;2023-10-19T06:01:13;23.10;;;13.77;;
63112;SDS011;49206;48.020;21.378;2023-10-19T06:02:15;23.13;;;14.57;;
63112;SDS011;49206;48.020;21.378;2023-10-19T06:03:33;22.40;;;14.38;;
63112;SDS011;49206;48.020;21.378;2023-10-19T06:04:35;26.75;;;15.13;;
63112;SDS011;49206;48.020;21.378;2023-10-19T06:05:40;24.83;;;14.40;;
63112;SDS011;49206;48.020;21.378;2023-10-19T06:06:50;24.13;;;13.57;;
63112;SDS011;49206;48.020;21.378;2023-10-19T06:07:53;22.67;;;13.38;;
63112;SDS011;49206;48.020;21.378;2023-10-19T06:08:56;27.77;;;14.75;;
63112;SDS011;49206;48.020;21.378;2023-10-19T06:09:59;21.52;;;14.40;;
63112;SDS011;49206;48.020;21.378;2023-10-19T06:11:06;24.02;;;15.43;;
63112;SDS011;49206;48.020;21.378;2023-10-19T06:12:09;22.98;;;15.73;;
63112;SDS011;49206;48.020;21.378;2023-10-19T06:13:12;21.48;;;13.68;;
63112;SDS011;49206;48.020;21.378;2023-10-19T06:14:14;23.35;;;14.55;;
63112;SDS011;49206;48.020;21.378;2023-10-19T06:15:18;25.83;;;14.98;;
63112;SDS011;49206;48.020;21.378;2023-10-19T06:16:23;23.33;;;14.50;;
63112;SDS011;49206;48.020;21.378;2023-10-19T06:17:26;26.75;;;15.02;;
63112;SDS011;49206;48.020;21.378;2023-10-19T06:18:33;24.63;;;15.43;;
63112;SDS011;49206;48.020;21.378;2023-10-19T06:19:35;26.42;;;16.05;;
63112;SDS011;49206;48.020;21.378;2023-10-19T06:20:46;25.88;;;15.93;;
63112;SDS011;49206;48.020;21.378;2023-10-19T06:21:50;27.00;;;17.13;;
63112;SDS011;49206;48.020;21.378;2023-10-19T06:22:53;25.02;;;14.55;;
63112;SDS011;49206;48.020;21.378;2023-10-19T06:23:58;28.85;;;16.77;;
63112;SDS011;49206;48.020;21.378;2023-10-19T06:25:02;27.95;;;17.63;;
63112;SDS011;49206;48.020;21.378;2023-10-19T06:26:10;28.83;;;18.17;;
63112;SDS011;49206;48.020;21.378;2023-10-19T06:27:14;30.42;;;19.77;;